sensor_id;sensor_type;location;lat;lon;timestamp;P1;durP1;ratioP1;P2;durP2;ratioP2
75165;SDS011;63747;48.042;10.088;2022-11-20T00:01:47;4.15;;;3.33;;
75165;SDS011;63747;48.042;10.088;2022-11-20T00:04:48;4.40;;;3.13;;
75165;SDS011;63747;48.042;10.088;2022-11-20T00:07:50;4.23;;;3.37;;
75165;SDS011;63747;48.042;10.088;2022-11-20T00:10:51;4.68;;;3.05;;
75165;SDS011;63747;48.042;10.088;2022-11-20T00:13:53;5.73;;;3.13;;
75165;SDS011;63747;48.042;10.088;2022-11-20T00:16:57;4.75;;;3.22;;
75165;SDS011;63747;48.042;10.088;2022-11-20T00:19:58;4.82;;;3.85;;
75165;SDS011;63747;48.042;10.088;2022-11-20T00:23:03;5.10;;;3.72;;
75165;SDS011;63747;48.042;10.088;2022-11-20T00:26:08;4.65;;;3.13;;
75165;SDS011;63747;48.042;10.088;2022-11-20T00:29:10;4.00;;;3.00;;
75165;SDS011;63747;48.042;10.088;2022-11-20T00:32:11;3.10;;;2.70;;
75165;SDS011;63747;48.042;10.088;2022-11-20T00:35:12;6.90;;;3.00;;
75165;SDS011;63747;48.042;10.088;2022-11-20T00:38:13;3.80;;;2.83;;
75165;SDS011;63747;48.042;10.088;2022-11-20T00:41:15;3.77;;;2.80;;
75165;SDS011;63747;48.042;10.088;2022-11-20T00:44:16;4.55;;;3.08;;
75165;SDS011;63747;48.042;10.088;2022-11-20T00:47:17;5.13;;;3.37;;
75165;SDS011;63747;48.042;10.088;2022-11-20T00:50:18;4.07;;;3.17;;
75165;SDS011;63747;48.042;10.088;2022-11-20T00:53:20;4.90;;;3.20;;
75165;SDS011;63747;48.042;10.088;2022-11-20T00:56:21;4.63;;;3.22;;
75165;SDS011;63747;48.042;10.088;2022-11-20T00:59:22;3.60;;;2.60;;
75165;SDS011;63747;48.042;10.088;2022-11-20T01:02:24;4.10;;;3.05;;
75165;SDS011;63747;48.042;10.088;2022-11-20T01:05:25;3.92;;;2.90;;
75165;SDS011;63747;48.042;10.088;2022-11-20T01:08:28;5.18;;;3.10;;
75165;SDS011;63747;48.042;10.088;2022-11-20T01:11:32;4.55;;;3.55;;
75165;SDS011;63747;48.042;10.088;2022-11-20T01:14:36;5.35;;;3.33;;
75165;SDS011;63747;48.042;10.088;2022-11-20T01:17:36;5.00;;;2.90;;
75165;SDS011;63747;48.042;10.088;2022-11-20T01:20:40;4.38;;;2.95;;
75165;SDS011;63747;48.042;10.088;2022-11-20T01:23:41;5.77;;;4.20;;
75165;SDS011;63747;48.042;10.088;2022-11-20T01:26:44;4.70;;;3.90;;
75165;SDS011;63747;48.042;10.088;2022-11-20T01:29:47;4.57;;;3.92;;
75165;SDS011;63747;48.042;10.088;2022-11-20T01:32:47;6.93;;;3.70;;
75165;SDS011;63747;48.042;10.088;2022-11-20T01:35:48;6.10;;;4.13;;
75165;SDS011;63747;48.042;10.088;2022-11-20T01:38:53;4.93;;;4.13;;
75165;SDS011;63747;48.042;10.088;2022-11-20T01:41:59;5.38;;;4.00;;
75165;SDS011;63747;48.042;10.088;2022-11-20T01:49:07;5.40;;;3.90;;
75165;SDS011;63747;48.042;10.088;2022-11-20T01:52:16;6.55;;;4.47;;
75165;SDS011;63747;48.042;10.088;2022-11-20T01:55:27;6.72;;;3.83;;
75165;SDS011;63747;48.042;10.088;2022-11-20T01:58:32;4.40;;;4.00;;
75165;SDS011;63747;48.042;10.088;2022-11-20T02:01:36;4.72;;;4.22;;
75165;SDS011;63747;48.042;10.088;2022-11-20T02:04:39;5.60;;;4.18;;
75165;SDS011;63747;48.042;10.088;2022-11-20T02:07:40;5.32;;;3.60;;
75165;SDS011;63747;48.042;10.088;2022-11-20T02:10:42;4.47;;;4.03;;
75165;SDS011;63747;48.042;10.088;2022-11-20T02:13:43;4.53;;;3.90;;
75165;SDS011;63747;48.042;10.088;2022-11-20T02:16:45;5.10;;;4.20;;
75165;SDS011;63747;48.042;10.088;2022-11-20T02:19:47;6.03;;;3.85;;
75165;SDS011;63747;48.042;10.088;2022-11-20T02:22:54;5.37;;;4.00;;
75165;SDS011;63747;48.042;10.088;2022-11-20T02:25:56;4.68;;;4.18;;
75165;SDS011;63747;48.042;10.088;2022-11-20T02:29:00;4.90;;;4.13;;
75165;SDS011;63747;48.042;10.088;2022-11-20T02:32:03;4.50;;;3.85;;
75165;SDS011;63747;48.042;10.088;2022-11-20T02:38:20;5.63;;;4.20;;
75165;SDS011;63747;48.042;10.088;2022-11-20T02:41:21;4.43;;;3.83;;
75165;SDS011;63747;48.042;10.088;2022-11-20T02:44:22;5.10;;;3.50;;
75165;SDS011;63747;48.042;10.088;2022-11-20T02:47:23;4.57;;;3.20;;
75165;SDS011;63747;48.042;10.088;2022-11-20T02:50:24;4.03;;;3.10;;
75165;SDS011;63747;48.042;10.088;2022-11-20T02:53:24;4.67;;;2.80;;
75165;SDS011;63747;48.042;10.088;2022-11-20T02:56:25;5.43;;;2.90;;
75165;SDS011;63747;48.042;10.088;2022-11-20T02:59:26;3.03;;;2.37;;
75165;SDS011;63747;48.042;10.088;2022-11-20T03:02:29;4.80;;;2.70;;
75165;SDS011;63747;48.042;10.088;2022-11-20T03:05:30;3.05;;;2.50;;
75165;SDS011;63747;48.042;10.088;2022-11-20T03:08:31;3.97;;;2.53;;
75165;SDS011;63747;48.042;10.088;2022-11-20T03:11:32;3.03;;;2.27;;
75165;SDS011;63747;48.042;10.088;2022-11-20T03:14:33;4.47;;;2.50;;
75165;SDS011;63747;48.042;10.088;2022-11-20T03:17:34;2.78;;;2.28;;
75165;SDS011;63747;48.042;10.088;2022-11-20T03:20:35;3.20;;;2.23;;
75165;SDS011;63747;48.042;10.088;2022-11-20T03:23:36;3.63;;;2.67;;
75165;SDS011;63747;48.042;10.088;2022-11-20T03:26:38;3.85;;;2.72;;
75165;SDS011;63747;48.042;10.088;2022-11-20T03:32:40;3.95;;;2.88;;
75165;SDS011;63747;48.042;10.088;2022-11-20T03:35:40;4.67;;;3.13;;
75165;SDS011;63747;48.042;10.088;2022-11-20T03:38:41;5.63;;;2.97;;
75165;SDS011;63747;48.042;10.088;2022-11-20T03:41:42;4.18;;;3.33;;
75165;SDS011;63747;48.042;10.088;2022-11-20T03:44:43;5.07;;;3.50;;
75165;SDS011;63747;48.042;10.088;2022-11-20T03:47:44;4.80;;;2.87;;
75165;SDS011;63747;48.042;10.088;2022-11-20T03:50:45;4.85;;;3.72;;
75165;SDS011;63747;48.042;10.088;2022-11-20T03:53:48;5.70;;;3.22;;
75165;SDS011;63747;48.042;10.088;2022-11-20T03:56:49;4.55;;;3.55;;
75165;SDS011;63747;48.042;10.088;2022-11-20T03:59:50;6.00;;;3.63;;
75165;SDS011;63747;48.042;10.088;2022-11-20T04:02:51;4.63;;;3.83;;
75165;SDS011;63747;48.042;10.088;2022-11-20T04:05:51;4.73;;;4.10;;
75165;SDS011;63747;48.042;10.088;2022-11-20T04:08:56;5.00;;;4.20;;
75165;SDS011;63747;48.042;10.088;2022-11-20T04:11:57;4.40;;;4.00;;
75165;SDS011;63747;48.042;10.088;2022-11-20T04:14:58;4.60;;;3.97;;
75165;SDS011;63747;48.042;10.088;2022-11-20T04:17:58;4.47;;;4.07;;
75165;SDS011;63747;48.042;10.088;2022-11-20T04:20:59;5.20;;;4.63;;
75165;SDS011;63747;48.042;10.088;2022-11-20T04:24:00;4.88;;;4.35;;
75165;SDS011;63747;48.042;10.088;2022-11-20T04:27:01;6.70;;;4.83;;
75165;SDS011;63747;48.042;10.088;2022-11-20T04:30:02;7.93;;;5.10;;
75165;SDS011;63747;48.042;10.088;2022-11-20T04:33:03;6.85;;;4.80;;
75165;SDS011;63747;48.042;10.088;2022-11-20T04:36:05;5.70;;;4.93;;
75165;SDS011;63747;48.042;10.088;2022-11-20T04:39:14;6.18;;;4.90;;
75165;SDS011;63747;48.042;10.088;2022-11-20T04:42:15;7.10;;;5.55;;
75165;SDS011;63747;48.042;10.088;2022-11-20T04:45:28;6.32;;;5.00;;
75165;SDS011;63747;48.042;10.088;2022-11-20T04:48:29;7.27;;;5.50;;
75165;SDS011;63747;48.042;10.088;2022-11-20T04:51:30;5.65;;;5.13;;
75165;SDS011;63747;48.042;10.088;2022-11-20T04:54:31;7.53;;;5.82;;
75165;SDS011;63747;48.042;10.088;2022-11-20T04:57:32;6.70;;;5.63;;
75165;SDS011;63747;48.042;10.088;2022-11-20T05:00:33;6.30;;;5.40;;
75165;SDS011;63747;48.042;10.088;2022-11-20T05:03:33;6.40;;;5.50;;
75165;SDS011;63747;48.042;10.088;2022-11-20T05:06:34;6.70;;;5.27;;
75165;SDS011;63747;48.042;10.088;2022-11-20T05:09:35;5.00;;;4.50;;
75165;SDS011;63747;48.042;10.088;2022-11-20T05:12:35;7.13;;;5.33;;
75165;SDS011;63747;48.042;10.088;2022-11-20T05:15:36;5.40;;;4.77;;
75165;SDS011;63747;48.042;10.088;2022-11-20T05:18:37;6.27;;;4.53;;
75165;SDS011;63747;48.042;10.088;2022-11-20T05:21:38;5.32;;;4.22;;
75165;SDS011;63747;48.042;10.088;2022-11-20T05:24:39;6.20;;;4.63;;
75165;SDS011;63747;48.042;10.088;2022-11-20T05:27:39;5.20;;;4.40;;
75165;SDS011;63747;48.042;10.088;2022-11-20T05:30:40;5.13;;;4.37;;
75165;SDS011;63747;48.042;10.088;2022-11-20T05:33:41;6.87;;;4.20;;
75165;SDS011;63747;48.042;10.088;2022-11-20T05:36:43;5.80;;;3.85;;
75165;SDS011;63747;48.042;10.088;2022-11-20T05:39:44;8.13;;;4.40;;
75165;SDS011;63747;48.042;10.088;2022-11-20T05:42:44;5.23;;;4.10;;
75165;SDS011;63747;48.042;10.088;2022-11-20T05:45:52;5.03;;;4.17;;
75165;SDS011;63747;48.042;10.088;2022-11-20T05:48:54;5.22;;;4.38;;
75165;SDS011;63747;48.042;10.088;2022-11-20T05:51:57;5.07;;;3.90;;
75165;SDS011;63747;48.042;10.088;2022-11-20T05:54:57;5.63;;;4.47;;
75165;SDS011;63747;48.042;10.088;2022-11-20T05:57:58;7.17;;;4.30;;
75165;SDS011;63747;48.042;10.088;2022-11-20T06:01:09;6.17;;;3.80;;
75165;SDS011;63747;48.042;10.088;2022-11-20T06:04:13;5.13;;;4.30;;
75165;SDS011;63747;48.042;10.088;2022-11-20T06:07:14;4.60;;;3.80;;
75165;SDS011;63747;48.042;10.088;2022-11-20T06:10:14;5.33;;;3.93;;
75165;SDS011;63747;48.042;10.088;2022-11-20T06:13:15;5.93;;;3.93;;
75165;SDS011;63747;48.042;10.088;2022-11-20T06:16:16;6.13;;;4.07;;
75165;SDS011;63747;48.042;10.088;2022-11-20T06:19:18;5.95;;;4.13;;
75165;SDS011;63747;48.042;10.088;2022-11-20T06:22:19;5.00;;;3.53;;
75165;SDS011;63747;48.042;10.088;2022-11-20T06:25:20;4.73;;;3.90;;
75165;SDS011;63747;48.042;10.088;2022-11-20T06:28:20;5.67;;;4.10;;
75165;SDS011;63747;48.042;10.088;2022-11-20T06:31:23;6.00;;;4.00;;
75165;SDS011;63747;48.042;10.088;2022-11-20T06:34:25;7.00;;;4.80;;
75165;SDS011;63747;48.042;10.088;2022-11-20T06:37:25;4.80;;;4.30;;
75165;SDS011;63747;48.042;10.088;2022-11-20T06:40:26;5.90;;;4.57;;
75165;SDS011;63747;48.042;10.088;2022-11-20T06:43:28;5.67;;;4.33;;
75165;SDS011;63747;48.042;10.088;2022-11-20T06:46:29;5.68;;;4.65;;
75165;SDS011;63747;48.042;10.088;2022-11-20T06:49:30;6.33;;;4.30;;
75165;SDS011;63747;48.042;10.088;2022-11-20T06:52:30;5.73;;;3.93;;
75165;SDS011;63747;48.042;10.088;2022-11-20T06:55:31;4.53;;;3.97;;
75165;SDS011;63747;48.042;10.088;2022-11-20T06:58:32;7.63;;;4.00;;
75165;SDS011;63747;48.042;10.088;2022-11-20T07:01:34;5.28;;;3.60;;
75165;SDS011;63747;48.042;10.088;2022-11-20T07:04:35;5.03;;;3.70;;
75165;SDS011;63747;48.042;10.088;2022-11-20T07:07:36;5.57;;;3.50;;
75165;SDS011;63747;48.042;10.088;2022-11-20T07:10:36;3.97;;;3.53;;
75165;SDS011;63747;48.042;10.088;2022-11-20T07:13:37;3.20;;;2.90;;
75165;SDS011;63747;48.042;10.088;2022-11-20T07:16:38;6.20;;;3.33;;
75165;SDS011;63747;48.042;10.088;2022-11-20T07:19:38;3.67;;;3.00;;
75165;SDS011;63747;48.042;10.088;2022-11-20T07:22:39;3.67;;;3.00;;
75165;SDS011;63747;48.042;10.088;2022-11-20T07:25:40;4.17;;;3.27;;
75165;SDS011;63747;48.042;10.088;2022-11-20T07:28:43;4.47;;;3.23;;
75165;SDS011;63747;48.042;10.088;2022-11-20T07:31:45;4.45;;;2.67;;
75165;SDS011;63747;48.042;10.088;2022-11-20T07:34:45;4.23;;;3.07;;
75165;SDS011;63747;48.042;10.088;2022-11-20T07:37:46;3.80;;;3.00;;
75165;SDS011;63747;48.042;10.088;2022-11-20T07:43:49;3.78;;;2.90;;
75165;SDS011;63747;48.042;10.088;2022-11-20T07:46:49;3.63;;;2.63;;
75165;SDS011;63747;48.042;10.088;2022-11-20T07:49:50;8.10;;;3.13;;
75165;SDS011;63747;48.042;10.088;2022-11-20T07:52:51;5.17;;;2.90;;
75165;SDS011;63747;48.042;10.088;2022-11-20T07:55:52;3.78;;;2.30;;
75165;SDS011;63747;48.042;10.088;2022-11-20T07:58:53;4.87;;;3.03;;
75165;SDS011;63747;48.042;10.088;2022-11-20T08:01:54;5.00;;;2.63;;
75165;SDS011;63747;48.042;10.088;2022-11-20T08:04:55;5.13;;;2.50;;
75165;SDS011;63747;48.042;10.088;2022-11-20T08:07:55;2.93;;;2.70;;
75165;SDS011;63747;48.042;10.088;2022-11-20T08:10:57;3.03;;;2.30;;
75165;SDS011;63747;48.042;10.088;2022-11-20T08:14:16;3.80;;;2.42;;
75165;SDS011;63747;48.042;10.088;2022-11-20T08:17:17;5.33;;;2.33;;
75165;SDS011;63747;48.042;10.088;2022-11-20T08:20:18;3.27;;;2.47;;
75165;SDS011;63747;48.042;10.088;2022-11-20T08:23:18;3.17;;;2.23;;
75165;SDS011;63747;48.042;10.088;2022-11-20T08:26:20;3.73;;;2.37;;
75165;SDS011;63747;48.042;10.088;2022-11-20T08:29:22;3.22;;;2.28;;
75165;SDS011;63747;48.042;10.088;2022-11-20T08:32:23;3.80;;;2.70;;
75165;SDS011;63747;48.042;10.088;2022-11-20T08:35:24;2.70;;;2.03;;
75165;SDS011;63747;48.042;10.088;2022-11-20T08:38:24;5.53;;;2.43;;
75165;SDS011;63747;48.042;10.088;2022-11-20T08:41:25;3.90;;;1.90;;
75165;SDS011;63747;48.042;10.088;2022-11-20T08:44:30;3.22;;;1.70;;
75165;SDS011;63747;48.042;10.088;2022-11-20T08:47:31;1.83;;;1.60;;
75165;SDS011;63747;48.042;10.088;2022-11-20T08:50:32;3.73;;;2.20;;
75165;SDS011;63747;48.042;10.088;2022-11-20T08:53:32;3.23;;;1.97;;
75165;SDS011;63747;48.042;10.088;2022-11-20T08:56:33;2.70;;;1.70;;
75165;SDS011;63747;48.042;10.088;2022-11-20T08:59:34;1.98;;;1.48;;
75165;SDS011;63747;48.042;10.088;2022-11-20T09:02:35;2.33;;;1.50;;
75165;SDS011;63747;48.042;10.088;2022-11-20T09:05:36;4.47;;;1.83;;
75165;SDS011;63747;48.042;10.088;2022-11-20T09:08:36;3.30;;;1.70;;
75165;SDS011;63747;48.042;10.088;2022-11-20T09:11:37;3.00;;;1.37;;
75165;SDS011;63747;48.042;10.088;2022-11-20T09:14:38;1.53;;;0.80;;
75165;SDS011;63747;48.042;10.088;2022-11-20T09:17:39;1.97;;;1.10;;
75165;SDS011;63747;48.042;10.088;2022-11-20T09:20:39;2.30;;;1.27;;
75165;SDS011;63747;48.042;10.088;2022-11-20T09:23:40;3.90;;;1.30;;
75165;SDS011;63747;48.042;10.088;2022-11-20T09:26:41;2.70;;;1.33;;
75165;SDS011;63747;48.042;10.088;2022-11-20T09:29:42;1.87;;;1.37;;
75165;SDS011;63747;48.042;10.088;2022-11-20T09:32:42;2.10;;;0.80;;
75165;SDS011;63747;48.042;10.088;2022-11-20T09:35:43;2.87;;;1.00;;
75165;SDS011;63747;48.042;10.088;2022-11-20T09:38:45;1.70;;;1.25;;
75165;SDS011;63747;48.042;10.088;2022-11-20T09:45:01;1.55;;;1.00;;
75165;SDS011;63747;48.042;10.088;2022-11-20T09:54:37;2.70;;;1.00;;
75165;SDS011;63747;48.042;10.088;2022-11-20T09:57:42;1.48;;;1.23;;
75165;SDS011;63747;48.042;10.088;2022-11-20T10:00:45;1.52;;;1.13;;
75165;SDS011;63747;48.042;10.088;2022-11-20T10:03:54;2.33;;;1.10;;
75165;SDS011;63747;48.042;10.088;2022-11-20T10:07:22;1.70;;;1.17;;
75165;SDS011;63747;48.042;10.088;2022-11-20T10:10:33;2.80;;;1.30;;
75165;SDS011;63747;48.042;10.088;2022-11-20T10:30:19;1.75;;;1.20;;
75165;SDS011;63747;48.042;10.088;2022-11-20T10:33:24;1.75;;;1.00;;
75165;SDS011;63747;48.042;10.088;2022-11-20T10:36:28;1.67;;;1.17;;
75165;SDS011;63747;48.042;10.088;2022-11-20T10:39:35;1.92;;;1.67;;
75165;SDS011;63747;48.042;10.088;2022-11-20T10:42:53;1.40;;;1.05;;
75165;SDS011;63747;48.042;10.088;2022-11-20T10:45:57;1.33;;;1.00;;
75165;SDS011;63747;48.042;10.088;2022-11-20T10:49:02;2.15;;;1.27;;
75165;SDS011;63747;48.042;10.088;2022-11-20T10:52:27;3.35;;;1.23;;
75165;SDS011;63747;48.042;10.088;2022-11-20T11:02:41;2.33;;;1.10;;
75165;SDS011;63747;48.042;10.088;2022-11-20T11:06:01;2.22;;;1.20;;
75165;SDS011;63747;48.042;10.088;2022-11-20T11:09:30;2.38;;;1.48;;
75165;SDS011;63747;48.042;10.088;2022-11-20T11:12:37;3.40;;;1.42;;
75165;SDS011;63747;48.042;10.088;2022-11-20T11:15:45;2.78;;;1.50;;
75165;SDS011;63747;48.042;10.088;2022-11-20T11:18:46;1.37;;;1.10;;
75165;SDS011;63747;48.042;10.088;2022-11-20T11:21:47;1.43;;;1.10;;
75165;SDS011;63747;48.042;10.088;2022-11-20T11:24:53;2.08;;;1.20;;
75165;SDS011;63747;48.042;10.088;2022-11-20T11:27:55;2.72;;;1.60;;
75165;SDS011;63747;48.042;10.088;2022-11-20T11:30:58;3.83;;;1.58;;
75165;SDS011;63747;48.042;10.088;2022-11-20T11:34:11;2.20;;;1.40;;
75165;SDS011;63747;48.042;10.088;2022-11-20T11:37:17;2.58;;;1.58;;
75165;SDS011;63747;48.042;10.088;2022-11-20T11:40:24;2.92;;;1.40;;
75165;SDS011;63747;48.042;10.088;2022-11-20T11:43:28;3.72;;;1.20;;
75165;SDS011;63747;48.042;10.088;2022-11-20T11:47:00;2.13;;;1.38;;
75165;SDS011;63747;48.042;10.088;2022-11-20T11:53:20;1.88;;;1.23;;
75165;SDS011;63747;48.042;10.088;2022-11-20T11:56:24;2.40;;;1.52;;
75165;SDS011;63747;48.042;10.088;2022-11-20T11:59:26;3.15;;;1.67;;
75165;SDS011;63747;48.042;10.088;2022-11-20T12:05:51;2.22;;;1.50;;
75165;SDS011;63747;48.042;10.088;2022-11-20T12:12:17;3.63;;;1.60;;
75165;SDS011;63747;48.042;10.088;2022-11-20T12:15:26;2.92;;;1.48;;
75165;SDS011;63747;48.042;10.088;2022-11-20T12:18:30;2.95;;;2.13;;
75165;SDS011;63747;48.042;10.088;2022-11-20T12:21:33;2.97;;;1.43;;
75165;SDS011;63747;48.042;10.088;2022-11-20T12:24:50;3.22;;;1.60;;
75165;SDS011;63747;48.042;10.088;2022-11-20T12:34:27;3.15;;;1.45;;
75165;SDS011;63747;48.042;10.088;2022-11-20T12:37:48;2.33;;;1.50;;
75165;SDS011;63747;48.042;10.088;2022-11-20T12:54:40;3.40;;;1.70;;
75165;SDS011;63747;48.042;10.088;2022-11-20T12:57:53;4.18;;;1.75;;
75165;SDS011;63747;48.042;10.088;2022-11-20T13:04:27;4.20;;;1.60;;
75165;SDS011;63747;48.042;10.088;2022-11-20T13:07:38;4.40;;;1.63;;
75165;SDS011;63747;48.042;10.088;2022-11-20T13:17:19;5.22;;;2.42;;
75165;SDS011;63747;48.042;10.088;2022-11-20T13:20:41;2.78;;;1.17;;
75165;SDS011;63747;48.042;10.088;2022-11-20T13:23:44;2.35;;;1.30;;
75165;SDS011;63747;48.042;10.088;2022-11-20T13:26:45;1.83;;;1.30;;
75165;SDS011;63747;48.042;10.088;2022-11-20T13:29:58;1.67;;;1.02;;
75165;SDS011;63747;48.042;10.088;2022-11-20T13:33:04;3.47;;;1.20;;
75165;SDS011;63747;48.042;10.088;2022-11-20T13:36:22;3.40;;;1.55;;
75165;SDS011;63747;48.042;10.088;2022-11-20T13:42:37;2.92;;;1.52;;
75165;SDS011;63747;48.042;10.088;2022-11-20T13:45:40;2.30;;;1.30;;
75165;SDS011;63747;48.042;10.088;2022-11-20T13:48:42;2.03;;;1.10;;
75165;SDS011;63747;48.042;10.088;2022-11-20T13:51:51;2.03;;;1.30;;
75165;SDS011;63747;48.042;10.088;2022-11-20T13:55:12;1.75;;;1.02;;
75165;SDS011;63747;48.042;10.088;2022-11-20T14:01:56;4.00;;;1.63;;
75165;SDS011;63747;48.042;10.088;2022-11-20T14:04:58;1.20;;;0.90;;
75165;SDS011;63747;48.042;10.088;2022-11-20T14:08:02;1.35;;;0.88;;
75165;SDS011;63747;48.042;10.088;2022-11-20T14:11:22;3.10;;;1.20;;
75165;SDS011;63747;48.042;10.088;2022-11-20T14:14:29;2.50;;;1.10;;
75165;SDS011;63747;48.042;10.088;2022-11-20T14:17:32;2.17;;;1.00;;
75165;SDS011;63747;48.042;10.088;2022-11-20T14:20:35;1.30;;;1.00;;
75165;SDS011;63747;48.042;10.088;2022-11-20T14:23:38;1.55;;;1.15;;
75165;SDS011;63747;48.042;10.088;2022-11-20T14:26:42;1.53;;;0.97;;
75165;SDS011;63747;48.042;10.088;2022-11-20T14:29:44;1.88;;;1.02;;
75165;SDS011;63747;48.042;10.088;2022-11-20T14:32:47;3.15;;;1.30;;
75165;SDS011;63747;48.042;10.088;2022-11-20T14:35:50;2.00;;;1.27;;
75165;SDS011;63747;48.042;10.088;2022-11-20T14:38:52;2.70;;;1.80;;
75165;SDS011;63747;48.042;10.088;2022-11-20T14:41:54;5.65;;;3.08;;
75165;SDS011;63747;48.042;10.088;2022-11-20T14:44:55;1.80;;;1.43;;
75165;SDS011;63747;48.042;10.088;2022-11-20T14:47:58;3.05;;;1.17;;
75165;SDS011;63747;48.042;10.088;2022-11-20T14:51:00;1.95;;;1.13;;
75165;SDS011;63747;48.042;10.088;2022-11-20T14:54:14;2.07;;;1.27;;
75165;SDS011;63747;48.042;10.088;2022-11-20T14:57:20;2.20;;;1.30;;
75165;SDS011;63747;48.042;10.088;2022-11-20T15:00:33;1.88;;;1.10;;
75165;SDS011;63747;48.042;10.088;2022-11-20T15:03:35;1.73;;;1.05;;
75165;SDS011;63747;48.042;10.088;2022-11-20T15:06:48;1.85;;;1.08;;
75165;SDS011;63747;48.042;10.088;2022-11-20T15:10:05;2.00;;;1.48;;
75165;SDS011;63747;48.042;10.088;2022-11-20T15:13:12;2.05;;;1.10;;
75165;SDS011;63747;48.042;10.088;2022-11-20T15:16:19;3.17;;;0.98;;
75165;SDS011;63747;48.042;10.088;2022-11-20T15:19:23;2.67;;;1.30;;
75165;SDS011;63747;48.042;10.088;2022-11-20T15:22:25;2.30;;;1.23;;
75165;SDS011;63747;48.042;10.088;2022-11-20T15:25:25;2.40;;;1.40;;
75165;SDS011;63747;48.042;10.088;2022-11-20T15:28:36;3.00;;;1.73;;
75165;SDS011;63747;48.042;10.088;2022-11-20T15:31:41;4.32;;;1.50;;
75165;SDS011;63747;48.042;10.088;2022-11-20T15:37:43;3.05;;;1.80;;
75165;SDS011;63747;48.042;10.088;2022-11-20T15:40:44;3.87;;;1.57;;
75165;SDS011;63747;48.042;10.088;2022-11-20T15:43:45;1.73;;;1.30;;
75165;SDS011;63747;48.042;10.088;2022-11-20T15:46:46;2.20;;;1.23;;
75165;SDS011;63747;48.042;10.088;2022-11-20T15:49:47;3.93;;;2.57;;
75165;SDS011;63747;48.042;10.088;2022-11-20T15:52:47;6.03;;;3.53;;
75165;SDS011;63747;48.042;10.088;2022-11-20T15:55:48;5.37;;;2.73;;
75165;SDS011;63747;48.042;10.088;2022-11-20T15:58:49;5.17;;;3.00;;
75165;SDS011;63747;48.042;10.088;2022-11-20T16:01:49;6.20;;;2.87;;
75165;SDS011;63747;48.042;10.088;2022-11-20T16:04:50;3.17;;;2.53;;
75165;SDS011;63747;48.042;10.088;2022-11-20T16:07:51;6.30;;;3.57;;
75165;SDS011;63747;48.042;10.088;2022-11-20T16:10:52;3.67;;;2.70;;
75165;SDS011;63747;48.042;10.088;2022-11-20T16:13:53;5.43;;;4.25;;
75165;SDS011;63747;48.042;10.088;2022-11-20T16:17:12;6.10;;;3.40;;
75165;SDS011;63747;48.042;10.088;2022-11-20T16:20:13;6.07;;;3.97;;
75165;SDS011;63747;48.042;10.088;2022-11-20T16:23:14;6.57;;;4.40;;
75165;SDS011;63747;48.042;10.088;2022-11-20T16:29:17;6.75;;;4.85;;
75165;SDS011;63747;48.042;10.088;2022-11-20T16:32:18;7.90;;;6.00;;
75165;SDS011;63747;48.042;10.088;2022-11-20T16:35:18;9.63;;;5.57;;
75165;SDS011;63747;48.042;10.088;2022-11-20T16:38:19;5.50;;;3.53;;
75165;SDS011;63747;48.042;10.088;2022-11-20T16:41:20;3.80;;;2.90;;
75165;SDS011;63747;48.042;10.088;2022-11-20T16:44:21;4.00;;;2.17;;
75165;SDS011;63747;48.042;10.088;2022-11-20T16:47:22;2.90;;;1.70;;
75165;SDS011;63747;48.042;10.088;2022-11-20T16:50:22;6.53;;;2.57;;
75165;SDS011;63747;48.042;10.088;2022-11-20T16:53:23;4.07;;;2.20;;
75165;SDS011;63747;48.042;10.088;2022-11-20T16:56:25;3.60;;;2.30;;
75165;SDS011;63747;48.042;10.088;2022-11-20T16:59:26;4.78;;;3.40;;
75165;SDS011;63747;48.042;10.088;2022-11-20T17:02:28;5.80;;;3.10;;
75165;SDS011;63747;48.042;10.088;2022-11-20T17:05:29;4.88;;;3.10;;
75165;SDS011;63747;48.042;10.088;2022-11-20T17:08:31;7.50;;;3.63;;
75165;SDS011;63747;48.042;10.088;2022-11-20T17:11:32;6.28;;;3.65;;
75165;SDS011;63747;48.042;10.088;2022-11-20T17:14:32;10.47;;;6.17;;
75165;SDS011;63747;48.042;10.088;2022-11-20T17:17:33;8.10;;;5.80;;
75165;SDS011;63747;48.042;10.088;2022-11-20T17:20:34;13.13;;;6.80;;
75165;SDS011;63747;48.042;10.088;2022-11-20T17:23:35;16.13;;;8.20;;
75165;SDS011;63747;48.042;10.088;2022-11-20T17:26:39;13.25;;;8.50;;
75165;SDS011;63747;48.042;10.088;2022-11-20T17:29:41;21.75;;;11.40;;
75165;SDS011;63747;48.042;10.088;2022-11-20T17:32:41;13.47;;;8.13;;
75165;SDS011;63747;48.042;10.088;2022-11-20T17:35:45;8.35;;;5.85;;
75165;SDS011;63747;48.042;10.088;2022-11-20T17:38:47;7.33;;;5.53;;
75165;SDS011;63747;48.042;10.088;2022-11-20T17:41:48;9.60;;;5.40;;
75165;SDS011;63747;48.042;10.088;2022-11-20T17:45:10;8.20;;;4.90;;
75165;SDS011;63747;48.042;10.088;2022-11-20T17:48:11;10.27;;;5.85;;
75165;SDS011;63747;48.042;10.088;2022-11-20T17:51:16;8.57;;;6.40;;
75165;SDS011;63747;48.042;10.088;2022-11-20T17:54:24;9.85;;;7.55;;
75165;SDS011;63747;48.042;10.088;2022-11-20T17:57:25;9.80;;;6.50;;
75165;SDS011;63747;48.042;10.088;2022-11-20T18:00:45;7.18;;;5.40;;
75165;SDS011;63747;48.042;10.088;2022-11-20T18:03:46;7.50;;;6.07;;
75165;SDS011;63747;48.042;10.088;2022-11-20T18:06:47;7.55;;;5.65;;
75165;SDS011;63747;48.042;10.088;2022-11-20T18:09:48;11.63;;;7.73;;
75165;SDS011;63747;48.042;10.088;2022-11-20T18:12:49;11.55;;;8.55;;
75165;SDS011;63747;48.042;10.088;2022-11-20T18:15:50;7.60;;;5.80;;
75165;SDS011;63747;48.042;10.088;2022-11-20T18:18:52;9.87;;;6.30;;
75165;SDS011;63747;48.042;10.088;2022-11-20T18:21:54;9.25;;;7.90;;
75165;SDS011;63747;48.042;10.088;2022-11-20T18:24:55;14.37;;;9.30;;
75165;SDS011;63747;48.042;10.088;2022-11-20T18:27:57;11.00;;;7.10;;
75165;SDS011;63747;48.042;10.088;2022-11-20T18:30:58;8.30;;;6.18;;
75165;SDS011;63747;48.042;10.088;2022-11-20T18:33:59;7.80;;;5.73;;
75165;SDS011;63747;48.042;10.088;2022-11-20T18:37:00;9.00;;;5.90;;
75165;SDS011;63747;48.042;10.088;2022-11-20T18:40:01;12.87;;;8.83;;
75165;SDS011;63747;48.042;10.088;2022-11-20T18:43:02;15.07;;;9.53;;
75165;SDS011;63747;48.042;10.088;2022-11-20T18:46:21;10.73;;;7.43;;
75165;SDS011;63747;48.042;10.088;2022-11-20T18:49:22;14.23;;;8.40;;
75165;SDS011;63747;48.042;10.088;2022-11-20T18:52:24;21.03;;;11.37;;
75165;SDS011;63747;48.042;10.088;2022-11-20T18:55:25;17.63;;;11.25;;
75165;SDS011;63747;48.042;10.088;2022-11-20T18:58:26;13.97;;;10.33;;
75165;SDS011;63747;48.042;10.088;2022-11-20T19:01:27;16.60;;;11.52;;
75165;SDS011;63747;48.042;10.088;2022-11-20T19:04:28;32.58;;;20.85;;
75165;SDS011;63747;48.042;10.088;2022-11-20T19:07:29;55.37;;;35.00;;
75165;SDS011;63747;48.042;10.088;2022-11-20T19:10:30;62.80;;;36.13;;
75165;SDS011;63747;48.042;10.088;2022-11-20T19:13:31;48.43;;;27.67;;
75165;SDS011;63747;48.042;10.088;2022-11-20T19:19:33;27.98;;;14.05;;
75165;SDS011;63747;48.042;10.088;2022-11-20T19:22:35;21.60;;;11.52;;
75165;SDS011;63747;48.042;10.088;2022-11-20T19:25:35;15.67;;;8.93;;
75165;SDS011;63747;48.042;10.088;2022-11-20T19:28:37;7.97;;;5.53;;
75165;SDS011;63747;48.042;10.088;2022-11-20T19:31:37;5.47;;;3.60;;
75165;SDS011;63747;48.042;10.088;2022-11-20T19:34:38;4.53;;;2.67;;
75165;SDS011;63747;48.042;10.088;2022-11-20T19:37:39;13.77;;;8.33;;
75165;SDS011;63747;48.042;10.088;2022-11-20T19:40:40;5.27;;;3.20;;
75165;SDS011;63747;48.042;10.088;2022-11-20T19:46:43;4.65;;;2.97;;
75165;SDS011;63747;48.042;10.088;2022-11-20T19:49:43;5.27;;;3.40;;
75165;SDS011;63747;48.042;10.088;2022-11-20T19:52:45;5.17;;;3.10;;